Time;durP1;ratioP1;P1;durP2;ratioP2;P2;SDS_P1;SDS_P2;PMS_P1;PMS_P2;Temp;Humidity;BMP_temperature;BMP_pressure;BME280_temperature;BME280_humidity;BME280_pressure;Samples;Min_cycle;Max_cycle;Signal;HPM_P1;HPM_P2
2022/09/27 00:00:41;;;;;;;0.73;0.50;;;11.80;99.90;;;;;;5084115;28;20213;-49
2022/09/27 00:03:08;;;;;;;2.20;0.70;;;11.70;99.90;;;;;;5082977;28;20193;-50
2022/09/27 00:05:35;;;;;;;2.43;0.80;;;11.70;99.90;;;;;;5088018;28;20199;-50
2022/09/27 00:08:03;;;;;;;2.90;0.73;;;11.70;99.90;;;;;;5087012;28;20203;-49
2022/09/27 00:10:30;;;;;;;1.13;0.70;;;11.70;99.90;;;;;;5084924;28;20385;-50
2022/09/27 00:12:58;;;;;;;0.90;0.90;;;11.70;99.90;;;;;;5091604;28;20199;-50
2022/09/27 00:15:26;;;;;;;0.90;0.90;;;11.70;99.90;;;;;;5091633;28;20210;-50
2022/09/27 00:17:53;;;;;;;0.90;0.90;;;11.60;99.90;;;;;;5091760;28;20724;-50
2022/09/27 00:20:21;;;;;;;1.33;1.20;;;11.50;99.90;;;;;;5086303;28;20230;-49
2022/09/27 00:22:49;;;;;;;1.00;1.00;;;11.50;99.90;;;;;;5086588;28;20203;-51
2022/09/27 00:25:17;;;;;;;2.10;1.03;;;11.50;99.90;;;;;;5091382;28;20277;-49
2022/09/27 00:27:44;;;;;;;1.50;1.40;;;11.30;99.90;;;;;;5091689;28;20254;-49
2022/09/27 00:30:14;;;;;;;0.93;0.93;;;11.30;99.90;;;;;;5091426;28;20218;-50
2022/09/27 00:32:41;;;;;;;1.00;1.00;;;11.30;99.90;;;;;;5091527;28;20221;-49
2022/09/27 00:35:08;;;;;;;1.10;1.10;;;11.20;99.90;;;;;;5085803;28;20196;-50
2022/09/27 00:37:36;;;;;;;4.90;1.27;;;11.20;99.90;;;;;;5086204;28;20205;-51
2022/09/27 00:40:03;;;;;;;1.10;1.00;;;11.20;99.90;;;;;;5071207;28;20232;-50
2022/09/27 00:42:30;;;;;;;1.07;0.97;;;11.20;99.90;;;;;;5078258;28;20203;-49
2022/09/27 00:45:07;;;;;;;1.43;1.33;;;11.20;99.90;;;;;;5088971;28;20196;-50
2022/09/27 00:47:43;;;;;;;1.43;1.00;;;11.30;99.90;;;;;;5088541;28;20206;-50
2022/09/27 00:50:20;;;;;;;1.00;1.00;;;11.40;99.90;;;;;;5077226;28;20733;-51
2022/09/27 00:52:56;;;;;;;1.03;1.00;;;11.30;99.90;;;;;;5091252;28;20195;-49
2022/09/27 00:55:27;;;;;;;1.00;1.00;;;11.20;99.90;;;;;;5079528;28;20217;-50
2022/09/27 00:57:55;;;;;;;0.93;0.93;;;11.10;99.90;;;;;;5074362;28;20696;-51
2022/09/27 01:00:23;;;;;;;1.43;0.90;;;11.10;99.90;;;;;;5076926;28;20612;-50
2022/09/27 01:02:55;;;;;;;1.23;1.13;;;11.00;99.90;;;;;;5089437;28;20199;-50
2022/09/27 01:05:25;;;;;;;1.80;1.20;;;11.00;99.90;;;;;;5088203;28;20207;-49
2022/09/27 01:07:55;;;;;;;1.40;1.30;;;11.10;99.90;;;;;;5090961;28;20770;-49
2022/09/27 01:10:25;;;;;;;1.10;1.00;;;11.10;99.90;;;;;;5091497;28;20253;-49
2022/09/27 01:13:05;;;;;;;2.20;0.90;;;11.00;99.90;;;;;;5085680;28;20203;-49
2022/09/27 01:15:40;;;;;;;1.03;1.03;;;11.10;99.90;;;;;;5094721;28;20199;-49
2022/09/27 01:18:34;;;;;;;0.90;0.90;;;11.00;99.90;;;;;;5094894;28;20211;-50
2022/09/27 01:21:34;;;;;;;0.87;0.87;;;11.00;99.90;;;;;;5086166;28;20226;-50
2022/09/27 01:24:30;;;;;;;2.13;1.13;;;11.00;99.90;;;;;;5092114;28;20204;-51
2022/09/27 01:27:37;;;;;;;2.20;1.40;;;11.00;99.90;;;;;;5094120;28;20211;-50
2022/09/27 01:30:20;;;;;;;1.37;1.37;;;10.90;99.90;;;;;;5091001;28;20594;-50
2022/09/27 01:32:58;;;;;;;1.40;1.30;;;10.90;99.90;;;;;;5094603;28;20195;-49
2022/09/27 01:35:34;;;;;;;1.07;1.03;;;10.90;99.90;;;;;;5092491;28;20606;-50
2022/09/27 01:38:13;;;;;;;1.63;1.60;;;10.90;99.90;;;;;;5080452;28;20208;-50
2022/09/27 01:40:47;;;;;;;1.73;1.70;;;10.90;99.90;;;;;;5094038;28;20223;-51
2022/09/27 01:43:20;;;;;;;1.63;1.60;;;10.90;99.90;;;;;;5093809;28;20202;-49
2022/09/27 01:45:55;;;;;;;2.20;2.10;;;10.90;99.90;;;;;;5087527;28;20211;-50
2022/09/27 01:48:23;;;;;;;1.90;1.80;;;10.90;99.90;;;;;;5086094;28;20230;-50
2022/09/27 01:50:55;;;;;;;2.27;2.17;;;10.90;99.90;;;;;;5089317;28;20198;-50
2022/09/27 01:53:25;;;;;;;3.07;1.97;;;10.90;99.90;;;;;;5093743;28;20213;-50
2022/09/27 01:55:55;;;;;;;3.67;1.87;;;10.90;99.90;;;;;;5093180;28;20207;-49
2022/09/27 01:58:26;;;;;;;1.93;1.80;;;10.90;99.90;;;;;;5088238;28;20242;-50
2022/09/27 02:00:56;;;;;;;2.43;2.00;;;10.90;99.90;;;;;;5091596;28;20267;-50
2022/09/27 02:03:30;;;;;;;2.87;2.60;;;10.90;99.90;;;;;;5085093;28;20210;-49
2022/09/27 02:06:01;;;;;;;2.00;1.90;;;10.90;99.90;;;;;;5093905;28;20200;-49
2022/09/27 02:08:36;;;;;;;2.23;2.13;;;10.80;99.90;;;;;;5093709;28;20235;-49
2022/09/27 02:11:09;;;;;;;1.77;1.67;;;10.80;99.90;;;;;;5090208;28;20679;-50
2022/09/27 02:13:42;;;;;;;1.67;1.67;;;10.80;99.90;;;;;;5089868;28;20207;-49
2022/09/27 02:16:21;;;;;;;2.47;2.13;;;10.80;99.90;;;;;;5073456;28;20249;-51
2022/09/27 02:18:56;;;;;;;1.50;1.40;;;10.80;99.90;;;;;;5088292;28;20712;-48
2022/09/27 02:21:31;;;;;;;2.07;1.97;;;10.80;99.90;;;;;;5087087;28;20210;-49
2022/09/27 02:24:03;;;;;;;2.00;1.90;;;10.80;99.90;;;;;;5092347;28;20268;-49
2022/09/27 02:26:36;;;;;;;2.50;1.47;;;10.80;99.90;;;;;;5093328;28;20211;-48
2022/09/27 02:29:10;;;;;;;2.17;1.90;;;10.80;99.90;;;;;;5085123;28;20216;-48
2022/09/27 02:31:38;;;;;;;1.70;1.60;;;10.70;99.90;;;;;;5090840;28;20219;-49
2022/09/27 02:34:10;;;;;;;2.00;1.77;;;10.80;99.90;;;;;;5078646;28;20568;-49
2022/09/27 02:36:38;;;;;;;2.90;1.33;;;10.70;99.90;;;;;;5087728;28;20279;-49
2022/09/27 02:39:05;;;;;;;1.70;1.40;;;10.80;99.90;;;;;;5092672;28;20607;-50
2022/09/27 02:41:33;;;;;;;2.27;1.60;;;10.90;99.90;;;;;;5089129;28;20202;-49
2022/09/27 02:44:04;;;;;;;1.40;1.37;;;10.90;99.90;;;;;;5089743;28;20206;-48
2022/09/27 02:46:57;;;;;;;1.70;1.60;;;10.80;99.90;;;;;;5092918;28;20203;-49
2022/09/27 02:49:36;;;;;;;1.37;1.27;;;10.80;99.90;;;;;;5092937;28;20579;-49
2022/09/27 02:52:14;;;;;;;2.27;1.27;;;10.80;99.90;;;;;;5093009;28;20220;-49
2022/09/27 02:54:46;;;;;;;1.53;1.53;;;10.80;99.90;;;;;;5079045;28;20208;-49
2022/09/27 02:57:26;;;;;;;1.37;1.37;;;10.80;99.90;;;;;;5087152;28;20573;-49
2022/09/27 03:00:04;;;;;;;3.03;1.50;;;10.80;99.90;;;;;;5090381;28;20220;-49
2022/09/27 03:02:39;;;;;;;1.57;1.20;;;10.80;99.90;;;;;;5086226;28;20208;-49
2022/09/27 03:05:10;;;;;;;1.00;1.00;;;10.80;99.90;;;;;;5093267;28;20212;-49
2022/09/27 03:07:38;;;;;;;1.50;0.90;;;10.70;99.90;;;;;;5088589;28;20678;-50
2022/09/27 03:10:07;;;;;;;1.30;1.30;;;10.70;99.90;;;;;;5094734;28;20305;-49
2022/09/27 03:12:35;;;;;;;1.00;1.00;;;10.70;99.90;;;;;;5084708;28;20204;-48
2022/09/27 03:15:02;;;;;;;1.13;1.03;;;10.70;99.90;;;;;;5084537;28;20197;-49
2022/09/27 03:17:29;;;;;;;1.43;0.87;;;10.60;99.90;;;;;;5092539;28;20290;-49
2022/09/27 03:19:58;;;;;;;0.83;0.83;;;10.60;99.90;;;;;;5089584;28;20272;-49
2022/09/27 03:22:25;;;;;;;0.57;0.57;;;10.60;99.90;;;;;;5090182;28;20199;-49
2022/09/27 03:24:52;;;;;;;1.00;0.97;;;10.60;99.90;;;;;;5089245;28;20201;-49
2022/09/27 03:27:20;;;;;;;1.37;1.27;;;10.60;99.90;;;;;;5086604;28;20214;-50
2022/09/27 03:29:47;;;;;;;1.33;1.33;;;10.60;99.90;;;;;;5088100;28;20229;-49
2022/09/27 03:32:14;;;;;;;1.03;0.93;;;10.70;99.90;;;;;;5080427;28;20210;-48
2022/09/27 03:34:41;;;;;;;1.63;1.60;;;10.70;99.90;;;;;;5091310;28;20196;-49
2022/09/27 03:37:10;;;;;;;1.27;1.13;;;10.80;99.90;;;;;;5087518;28;20222;-48
2022/09/27 03:39:37;;;;;;;0.70;0.70;;;10.80;99.90;;;;;;5092015;28;20225;-49
2022/09/27 03:42:04;;;;;;;2.13;0.90;;;10.70;99.90;;;;;;5087241;28;20207;-49
2022/09/27 03:44:32;;;;;;;0.77;0.60;;;10.80;99.90;;;;;;5088124;28;20211;-49
2022/09/27 03:46:59;;;;;;;2.93;0.60;;;10.80;99.90;;;;;;5071766;28;20266;-49
2022/09/27 03:49:26;;;;;;;1.33;0.20;;;10.80;99.90;;;;;;5071682;28;20229;-48
2022/09/27 03:51:53;;;;;;;0.50;0.20;;;10.90;99.90;;;;;;5071947;28;20245;-49
2022/09/27 03:54:23;;;;;;;0.40;0.40;;;10.80;99.90;;;;;;5083524;28;20575;-50
2022/09/27 03:56:51;;;;;;;2.20;0.20;;;10.70;99.90;;;;;;5083764;28;20213;-50
2022/09/27 03:59:18;;;;;;;0.20;0.20;;;10.80;99.90;;;;;;5091807;28;20218;-49
2022/09/27 04:01:45;;;;;;;0.60;0.43;;;10.80;99.90;;;;;;5086000;28;20209;-49
2022/09/27 04:04:13;;;;;;;1.23;0.30;;;10.70;99.90;;;;;;5085597;28;20199;-49
2022/09/27 04:06:40;;;;;;;2.53;0.20;;;10.70;99.90;;;;;;5089773;28;20677;-48
2022/09/27 04:09:07;;;;;;;0.50;0.50;;;10.70;99.90;;;;;;5088777;28;20274;-49
2022/09/27 04:11:36;;;;;;;0.40;0.40;;;10.70;99.90;;;;;;5087706;28;20705;-50
2022/09/27 04:14:04;;;;;;;1.23;0.40;;;10.80;99.90;;;;;;5090977;28;20210;-49
2022/09/27 04:16:32;;;;;;;0.30;0.30;;;10.70;99.90;;;;;;5086182;28;20284;-49
2022/09/27 04:19:00;;;;;;;0.23;0.23;;;10.70;99.90;;;;;;5088036;28;20226;-50
2022/09/27 04:21:27;;;;;;;0.70;0.10;;;10.80;99.90;;;;;;5084420;28;20696;-49
2022/09/27 04:23:55;;;;;;;0.67;0.40;;;10.70;99.90;;;;;;5082936;28;20246;-49
2022/09/27 04:26:23;;;;;;;1.27;0.43;;;10.60;99.90;;;;;;5091767;28;20214;-49
2022/09/27 04:28:51;;;;;;;0.93;0.20;;;10.70;99.90;;;;;;5077555;28;20836;-48
2022/09/27 04:31:19;;;;;;;0.23;0.20;;;10.70;99.90;;;;;;5071907;28;20197;-48
2022/09/27 04:33:47;;;;;;;0.57;0.20;;;10.70;99.90;;;;;;5091402;28;20213;-49
2022/09/27 04:36:26;;;;;;;0.20;0.20;;;10.60;99.90;;;;;;5081635;28;20207;-50
2022/09/27 04:38:53;;;;;;;0.60;0.30;;;10.60;99.90;;;;;;5074610;28;20725;-50
2022/09/27 04:41:22;;;;;;;2.87;1.03;;;10.60;99.90;;;;;;5088055;28;20704;-48
2022/09/27 04:43:51;;;;;;;0.83;0.50;;;10.60;99.90;;;;;;5089241;28;20281;-49
2022/09/27 04:46:20;;;;;;;0.23;0.23;;;10.60;99.90;;;;;;5091409;28;20733;-49
2022/09/27 04:48:47;;;;;;;0.30;0.30;;;10.60;99.90;;;;;;5086606;28;20246;-49
2022/09/27 04:51:16;;;;;;;0.20;0.20;;;10.60;99.90;;;;;;5086391;28;20199;-49
2022/09/27 04:53:43;;;;;;;0.30;0.20;;;10.60;99.90;;;;;;5078577;28;20738;-49
2022/09/27 04:56:11;;;;;;;0.93;0.10;;;10.60;99.90;;;;;;5080627;28;20205;-48
2022/09/27 04:58:38;;;;;;;0.37;0.30;;;10.60;99.90;;;;;;5084886;28;20305;-48
2022/09/27 05:01:08;;;;;;;0.20;0.20;;;10.60;99.90;;;;;;5093613;28;20230;-50
2022/09/27 05:03:35;;;;;;;0.93;0.30;;;10.60;99.90;;;;;;5094668;28;20651;-49
2022/09/27 05:06:02;;;;;;;0.80;0.50;;;10.50;99.90;;;;;;5092286;28;20573;-48
2022/09/27 05:08:32;;;;;;;0.40;0.40;;;10.50;99.90;;;;;;5094426;28;20222;-49
2022/09/27 05:11:00;;;;;;;0.57;0.10;;;10.50;99.90;;;;;;5087894;28;20199;-49
2022/09/27 05:13:27;;;;;;;0.40;0.17;;;10.50;99.90;;;;;;5094807;28;20679;-48
2022/09/27 05:15:55;;;;;;;2.77;0.30;;;10.50;99.90;;;;;;5094715;28;20190;-49
2022/09/27 05:18:23;;;;;;;0.70;0.40;;;10.50;99.90;;;;;;5094737;28;20222;-48
2022/09/27 05:20:52;;;;;;;3.00;1.13;;;10.50;99.90;;;;;;5087981;28;20226;-49
2022/09/27 05:23:19;;;;;;;0.60;0.60;;;10.50;99.90;;;;;;5093971;28;20219;-49
2022/09/27 05:25:47;;;;;;;2.97;1.20;;;10.40;99.90;;;;;;5094853;28;20203;-49
2022/09/27 05:28:14;;;;;;;3.77;1.83;;;10.50;99.90;;;;;;5076322;28;20888;-49
2022/09/27 05:30:42;;;;;;;1.70;0.67;;;10.50;99.90;;;;;;5073993;28;20205;-48
2022/09/27 05:33:09;;;;;;;1.87;0.70;;;10.50;99.90;;;;;;5081699;28;20569;-48
2022/09/27 05:35:41;;;;;;;3.93;0.20;;;10.50;99.90;;;;;;5091250;28;20209;-48
2022/09/27 05:38:08;;;;;;;0.63;0.20;;;10.40;99.90;;;;;;5094566;28;20207;-50
2022/09/27 05:40:36;;;;;;;1.40;0.37;;;10.40;99.90;;;;;;5094236;28;20226;-49
2022/09/27 05:43:03;;;;;;;0.20;0.20;;;10.30;99.90;;;;;;5078048;28;20688;-48
2022/09/27 05:45:30;;;;;;;2.57;0.30;;;10.30;99.90;;;;;;5080207;28;20200;-49
2022/09/27 05:47:59;;;;;;;0.20;0.20;;;10.20;99.90;;;;;;5082090;28;20205;-48
2022/09/27 05:50:28;;;;;;;0.20;0.20;;;10.10;99.90;;;;;;5091868;28;20202;-49
2022/09/27 05:52:57;;;;;;;1.40;0.53;;;10.10;99.90;;;;;;5087314;28;20205;-49
2022/09/27 05:55:24;;;;;;;1.30;0.40;;;10.10;99.90;;;;;;5087640;28;20202;-49
2022/09/27 05:57:56;;;;;;;0.50;0.40;;;10.10;99.90;;;;;;5093689;28;20666;-49
2022/09/27 06:00:24;;;;;;;0.20;0.20;;;10.10;99.90;;;;;;5082708;28;20227;-49
2022/09/27 06:02:56;;;;;;;0.23;0.20;;;10.20;99.90;;;;;;5093652;28;20210;-49
2022/09/27 06:05:24;;;;;;;0.33;0.20;;;10.10;99.90;;;;;;5085981;28;20214;-49
2022/09/27 06:07:51;;;;;;;0.33;0.30;;;10.10;99.90;;;;;;5093537;28;20205;-49
2022/09/27 06:10:20;;;;;;;0.40;0.20;;;10.10;99.90;;;;;;5083465;28;20217;-49
2022/09/27 06:12:47;;;;;;;1.97;0.30;;;10.20;99.90;;;;;;5083647;28;20287;-48
2022/09/27 06:15:14;;;;;;;0.30;0.30;;;10.20;99.90;;;;;;5083728;28;20283;-49
2022/09/27 06:17:42;;;;;;;0.33;0.33;;;10.20;99.90;;;;;;5093478;28;20206;-49
2022/09/27 06:20:09;;;;;;;0.47;0.43;;;10.20;99.90;;;;;;5088792;28;20221;-49
2022/09/27 06:22:37;;;;;;;0.40;0.40;;;10.20;99.90;;;;;;5093414;28;20587;-48
2022/09/27 06:25:05;;;;;;;1.13;0.77;;;10.20;99.90;;;;;;5093214;28;20203;-49
2022/09/27 06:27:33;;;;;;;0.50;0.20;;;10.20;99.90;;;;;;5093429;28;20211;-49
2022/09/27 06:30:00;;;;;;;0.30;0.30;;;10.10;99.90;;;;;;5091691;28;20275;-50
2022/09/27 06:32:28;;;;;;;1.40;0.33;;;10.10;99.90;;;;;;5092069;28;20194;-48
2022/09/27 06:34:55;;;;;;;1.50;0.63;;;10.10;99.90;;;;;;5088188;28;20208;-49
2022/09/27 06:37:25;;;;;;;0.30;0.30;;;10.10;99.90;;;;;;5082750;28;20717;-48
2022/09/27 06:39:53;;;;;;;0.30;0.30;;;10.20;99.90;;;;;;5091924;28;20259;-49
2022/09/27 06:42:20;;;;;;;1.33;0.67;;;10.20;99.90;;;;;;5092647;28;20215;-50
2022/09/27 06:44:48;;;;;;;1.40;0.27;;;10.30;99.90;;;;;;5092925;28;20197;-50
2022/09/27 06:47:16;;;;;;;0.77;0.20;;;10.40;99.90;;;;;;5093022;28;20205;-49
2022/09/27 06:49:43;;;;;;;1.60;0.10;;;10.40;99.90;;;;;;5091656;28;20703;-49
2022/09/27 06:52:10;;;;;;;1.63;0.30;;;10.40;99.90;;;;;;5091763;28;20195;-50
2022/09/27 06:54:37;;;;;;;0.20;0.20;;;10.50;99.90;;;;;;5092606;28;20209;-49
2022/09/27 06:57:05;;;;;;;0.70;0.20;;;10.50;99.90;;;;;;5093080;28;20584;-49
2022/09/27 07:02:33;;;;;;;0.10;0.10;;;10.40;99.90;;;;;;5046075;28;20207;-49
2022/09/27 07:05:00;;;;;;;0.67;0.20;;;10.50;99.90;;;;;;5049932;28;20210;-48
2022/09/27 07:07:28;;;;;;;0.30;0.20;;;10.50;99.90;;;;;;5068961;28;20232;-48
2022/09/27 07:09:56;;;;;;;0.57;0.30;;;10.50;99.90;;;;;;5085824;28;20596;-48
2022/09/27 07:12:23;;;;;;;1.17;0.30;;;10.40;99.90;;;;;;5091837;28;20195;-48
2022/09/27 07:14:50;;;;;;;0.20;0.20;;;10.40;99.90;;;;;;5092303;28;20226;-48
2022/09/27 07:17:17;;;;;;;0.50;0.10;;;10.30;99.90;;;;;;5092557;28;20213;-48
2022/09/27 07:19:46;;;;;;;2.30;0.20;;;10.30;99.90;;;;;;5091268;28;20215;-49
2022/09/27 07:22:13;;;;;;;1.33;0.20;;;10.30;99.90;;;;;;5092447;28;20214;-50
2022/09/27 07:24:40;;;;;;;1.00;0.47;;;10.20;99.90;;;;;;5092362;28;20207;-50
2022/09/27 07:27:07;;;;;;;0.57;0.10;;;10.20;99.90;;;;;;5077419;28;20215;-50
2022/09/27 07:29:34;;;;;;;1.03;0.97;;;10.00;99.90;;;;;;5070976;28;20244;-49
2022/09/27 07:32:02;;;;;;;0.20;0.20;;;10.00;99.90;;;;;;5085525;28;20202;-49
2022/09/27 07:34:29;;;;;;;1.23;0.20;;;10.00;99.90;;;;;;5089116;28;20196;-50
2022/09/27 07:37:02;;;;;;;1.60;0.20;;;9.90;99.90;;;;;;5088188;28;20215;-49
2022/09/27 07:39:29;;;;;;;0.20;0.20;;;9.80;99.90;;;;;;5084201;28;20226;-49
2022/09/27 07:41:57;;;;;;;0.20;0.20;;;9.60;99.90;;;;;;5085293;28;20232;-51
2022/09/27 07:44:24;;;;;;;0.13;0.10;;;9.70;99.90;;;;;;5074402;28;20217;-48
2022/09/27 07:46:51;;;;;;;2.00;0.10;;;9.60;99.90;;;;;;5089969;28;20655;-49
2022/09/27 07:49:18;;;;;;;0.17;0.17;;;9.60;99.90;;;;;;5089938;28;20230;-49
2022/09/27 07:51:45;;;;;;;1.10;0.10;;;9.20;99.90;;;;;;5091078;28;20195;-49
2022/09/27 07:54:14;;;;;;;0.33;0.00;;;9.10;99.90;;;;;;5091870;28;20206;-48
2022/09/27 07:56:41;;;;;;;0.33;0.30;;;8.90;99.90;;;;;;5091838;28;20197;-48
2022/09/27 07:59:08;;;;;;;0.03;0.03;;;8.90;99.90;;;;;;5090908;28;20229;-49
2022/09/27 08:01:35;;;;;;;1.13;0.50;;;8.90;99.90;;;;;;5088658;28;20584;-49
2022/09/27 08:04:02;;;;;;;0.40;0.40;;;8.90;99.90;;;;;;5071668;28;20202;-49
2022/09/27 08:06:30;;;;;;;0.73;0.10;;;8.90;99.90;;;;;;5071743;28;20203;-49
2022/09/27 08:08:58;;;;;;;0.23;0.23;;;9.00;99.90;;;;;;5071966;28;20217;-47
2022/09/27 08:11:26;;;;;;;1.50;0.30;;;9.00;99.90;;;;;;5090325;28;20268;-49
2022/09/27 08:13:55;;;;;;;0.33;0.10;;;9.00;99.90;;;;;;5096576;28;20243;-49
2022/09/27 08:16:23;;;;;;;1.33;0.27;;;9.10;99.90;;;;;;5105203;28;20451;-48
2022/09/27 08:18:50;;;;;;;1.33;0.10;;;9.10;99.90;;;;;;5085379;28;20240;-47
2022/09/27 08:21:17;;;;;;;0.57;0.10;;;9.10;99.90;;;;;;5097440;28;20219;-48
2022/09/27 08:23:44;;;;;;;0.30;0.30;;;9.10;99.90;;;;;;5094650;28;20545;-48
2022/09/27 08:26:11;;;;;;;0.40;0.40;;;9.10;99.90;;;;;;5095980;28;20218;-49
2022/09/27 08:28:39;;;;;;;1.13;0.33;;;9.10;99.90;;;;;;5095781;28;20274;-49
2022/09/27 08:31:07;;;;;;;0.47;0.47;;;9.20;99.90;;;;;;5082715;28;20202;-49
2022/09/27 08:33:34;;;;;;;1.60;0.70;;;9.30;99.90;;;;;;5091033;28;20202;-48
2022/09/27 08:36:02;;;;;;;0.73;0.30;;;9.40;99.90;;;;;;5087174;28;20198;-49
2022/09/27 08:38:29;;;;;;;0.23;0.20;;;9.50;99.90;;;;;;5095689;28;20226;-49
2022/09/27 08:41:01;;;;;;;0.20;0.20;;;9.60;99.90;;;;;;5089532;28;20653;-49
2022/09/27 08:43:36;;;;;;;0.23;0.23;;;9.70;99.90;;;;;;5095331;28;20206;-49
2022/09/27 08:46:15;;;;;;;0.20;0.20;;;9.60;99.90;;;;;;5095482;28;20210;-49
2022/09/27 08:48:47;;;;;;;0.30;0.20;;;9.70;99.90;;;;;;5095139;28;20230;-48
2022/09/27 08:51:15;;;;;;;0.10;0.10;;;9.70;99.90;;;;;;5089630;28;20202;-48
2022/09/27 08:53:47;;;;;;;0.20;0.20;;;9.90;99.90;;;;;;5094885;28;20246;-49
2022/09/27 08:56:20;;;;;;;0.37;0.37;;;10.00;99.90;;;;;;5095080;28;20294;-49
2022/09/27 08:58:51;;;;;;;0.20;0.20;;;10.20;99.90;;;;;;5094715;28;20295;-49
2022/09/27 09:01:20;;;;;;;0.47;0.20;;;10.30;99.90;;;;;;5089808;28;20718;-48
2022/09/27 09:03:50;;;;;;;0.87;0.10;;;10.70;99.90;;;;;;5093459;28;20194;-49
2022/09/27 09:06:22;;;;;;;0.30;0.20;;;10.90;99.90;;;;;;5093658;28;20206;-49
2022/09/27 09:09:10;;;;;;;1.13;0.20;;;11.10;99.90;;;;;;5087863;28;20726;-48
2022/09/27 09:14:55;;;;;;;0.13;0.10;;;11.40;99.90;;;;;;5073724;28;20194;-49
2022/09/27 09:17:38;;;;;;;0.67;0.20;;;11.40;99.90;;;;;;5093285;28;20217;-49
2022/09/27 09:20:19;;;;;;;0.63;0.50;;;11.20;99.90;;;;;;5079888;28;20263;-48
2022/09/27 09:23:10;;;;;;;0.57;0.20;;;11.20;99.90;;;;;;5091633;28;20210;-49
2022/09/27 09:25:44;;;;;;;0.20;0.20;;;11.30;99.90;;;;;;5089860;28;20210;-49
2022/09/27 09:28:24;;;;;;;0.63;0.20;;;11.50;99.90;;;;;;5094287;28;20225;-49
2022/09/27 09:31:02;;;;;;;1.00;0.33;;;12.50;99.90;;;;;;5093023;28;20202;-50
2022/09/27 09:33:37;;;;;;;1.70;0.20;;;13.60;99.90;;;;;;5093885;28;20205;-49
2022/09/27 09:36:12;;;;;;;0.40;0.40;;;14.50;99.90;;;;;;5089408;28;20210;-50
2022/09/27 09:38:45;;;;;;;0.10;0.10;;;15.20;99.90;;;;;;5090416;28;20224;-49
2022/09/27 09:41:18;;;;;;;0.40;0.30;;;16.00;99.90;;;;;;5092738;28;20200;-48
2022/09/27 09:43:50;;;;;;;0.83;0.10;;;16.70;99.90;;;;;;5091483;28;20294;-48
2022/09/27 09:46:23;;;;;;;0.10;0.10;;;17.10;99.90;;;;;;5094077;28;20200;-49
2022/09/27 09:48:57;;;;;;;0.10;0.10;;;17.20;99.90;;;;;;5093595;28;20236;-49
2022/09/27 09:51:33;;;;;;;1.93;0.80;;;17.20;99.90;;;;;;5092592;28;20665;-49
2022/09/27 09:54:05;;;;;;;0.67;0.20;;;16.90;99.90;;;;;;5093410;28;20585;-49
2022/09/27 09:56:35;;;;;;;0.27;0.27;;;16.70;99.90;;;;;;5093711;28;20200;-50
2022/09/27 09:59:11;;;;;;;0.53;0.20;;;16.40;99.90;;;;;;5092769;28;20307;-49
2022/09/27 10:01:42;;;;;;;2.20;0.10;;;16.00;99.90;;;;;;5090269;28;20567;-49
2022/09/27 10:04:18;;;;;;;0.37;0.20;;;15.90;99.90;;;;;;5093415;28;20218;-49
2022/09/27 10:06:45;;;;;;;0.10;0.10;;;15.80;99.90;;;;;;5093604;28;20199;-49
2022/09/27 10:09:15;;;;;;;1.23;0.30;;;15.40;99.90;;;;;;5093620;28;20303;-50
2022/09/27 10:11:45;;;;;;;0.37;0.20;;;14.80;99.90;;;;;;5092217;28;20196;-49
2022/09/27 10:14:14;;;;;;;0.67;0.30;;;14.50;99.90;;;;;;5093184;28;20287;-49
2022/09/27 10:16:47;;;;;;;1.80;0.20;;;14.10;99.90;;;;;;5081509;28;20577;-49
2022/09/27 10:19:18;;;;;;;0.47;0.30;;;13.80;99.90;;;;;;5093091;28;20275;-49
2022/09/27 10:21:48;;;;;;;0.10;0.10;;;13.60;99.90;;;;;;5087876;28;20226;-50
2022/09/27 10:24:18;;;;;;;1.03;0.70;;;13.60;99.90;;;;;;5083681;28;20213;-49
2022/09/27 10:26:47;;;;;;;0.87;0.30;;;13.50;99.90;;;;;;5092832;28;20746;-50
2022/09/27 10:29:17;;;;;;;1.03;0.13;;;13.50;99.90;;;;;;5093096;28;20235;-49
2022/09/27 10:31:47;;;;;;;1.20;0.30;;;13.40;99.90;;;;;;5091939;28;20664;-49
2022/09/27 10:34:35;;;;;;;1.40;0.30;;;13.50;99.90;;;;;;5076799;28;20693;-49
2022/09/27 10:37:06;;;;;;;1.13;0.30;;;13.50;99.90;;;;;;5072874;28;20202;-49
2022/09/27 10:39:34;;;;;;;0.50;0.30;;;13.50;99.90;;;;;;5072329;28;20227;-48
2022/09/27 10:42:01;;;;;;;0.47;0.20;;;13.80;99.90;;;;;;5091819;28;20218;-48
2022/09/27 10:44:31;;;;;;;1.23;0.27;;;13.80;99.90;;;;;;5092587;28;20192;-49
2022/09/27 10:47:01;;;;;;;1.40;0.30;;;13.90;99.90;;;;;;5092689;28;20216;-50
2022/09/27 10:49:31;;;;;;;0.80;0.20;;;13.80;99.90;;;;;;5091179;28;20613;-49
2022/09/27 10:52:01;;;;;;;0.10;0.10;;;13.70;99.90;;;;;;5082733;28;20629;-49
2022/09/27 10:54:32;;;;;;;0.37;0.30;;;13.50;99.90;;;;;;5083529;28;20226;-50
2022/09/27 10:57:03;;;;;;;1.13;1.03;;;13.30;99.90;;;;;;5089301;28;20615;-50
2022/09/27 10:59:33;;;;;;;3.00;0.23;;;13.10;99.90;;;;;;5067199;28;20220;-49
2022/09/27 11:02:00;;;;;;;0.20;0.20;;;13.00;99.90;;;;;;5084128;28;20218;-49
2022/09/27 11:04:30;;;;;;;0.80;0.30;;;12.90;99.90;;;;;;5091408;28;20192;-49
2022/09/27 11:07:13;;;;;;;0.20;0.20;;;12.70;99.90;;;;;;5090524;28;20198;-49
2022/09/27 11:09:53;;;;;;;0.77;0.50;;;12.60;99.90;;;;;;5085739;28;20226;-49
2022/09/27 11:12:21;;;;;;;0.57;0.30;;;12.60;99.90;;;;;;5086349;28;20198;-50
2022/09/27 11:14:58;;;;;;;0.40;0.30;;;12.60;99.90;;;;;;5078725;28;20210;-49
2022/09/27 11:17:35;;;;;;;0.67;0.40;;;12.70;99.90;;;;;;5092270;28;20217;-50
2022/09/27 11:20:21;;;;;;;0.73;0.50;;;12.70;99.90;;;;;;5090061;28;20230;-49
2022/09/27 11:23:20;;;;;;;1.30;0.40;;;12.70;99.90;;;;;;5083865;28;20230;-50
2022/09/27 11:26:02;;;;;;;1.10;0.20;;;12.60;99.90;;;;;;5089641;28;20205;-49
2022/09/27 11:28:41;;;;;;;0.47;0.40;;;12.30;99.90;;;;;;5087944;28;20223;-49
2022/09/27 11:31:16;;;;;;;1.90;0.40;;;12.30;99.90;;;;;;5082927;28;20198;-50
2022/09/27 11:33:57;;;;;;;1.97;0.30;;;12.20;99.90;;;;;;5090694;28;20206;-49
2022/09/27 11:36:37;;;;;;;1.57;0.57;;;12.00;99.90;;;;;;5088431;28;20206;-50
2022/09/27 11:39:13;;;;;;;0.20;0.20;;;11.70;99.90;;;;;;5083920;28;20215;-50
2022/09/27 11:41:58;;;;;;;4.57;0.20;;;11.40;99.90;;;;;;5081837;28;20252;-50
2022/09/27 11:44:42;;;;;;;1.40;0.30;;;11.00;99.90;;;;;;5082918;28;20201;-49
2022/09/27 11:47:17;;;;;;;4.13;0.27;;;10.70;99.90;;;;;;5092019;28;20589;-49
2022/09/27 11:50:11;;;;;;;0.20;0.10;;;10.40;99.90;;;;;;5071262;28;20241;-49
2022/09/27 11:52:52;;;;;;;0.10;0.10;;;10.20;99.90;;;;;;5045244;28;20210;-50
2022/09/27 11:55:34;;;;;;;0.30;0.17;;;10.40;99.90;;;;;;5083471;28;20219;-49
2022/09/27 11:58:09;;;;;;;0.20;0.20;;;10.80;99.90;;;;;;5078285;28;20631;-50
2022/09/27 12:00:54;;;;;;;0.60;0.20;;;11.20;99.90;;;;;;5082663;28;20273;-49
2022/09/27 12:03:57;;;;;;;0.40;0.23;;;11.30;99.90;;;;;;5079570;28;20223;-50
2022/09/27 12:06:36;;;;;;;0.60;0.40;;;11.30;99.90;;;;;;5085289;28;20211;-50
2022/09/27 12:09:07;;;;;;;1.70;0.30;;;11.20;99.90;;;;;;5083429;28;20267;-49
2022/09/27 12:11:41;;;;;;;0.60;0.20;;;11.20;99.90;;;;;;5083948;28;20667;-49
2022/09/27 12:14:16;;;;;;;0.30;0.20;;;11.10;99.90;;;;;;5082727;28;20796;-49
2022/09/27 12:16:46;;;;;;;0.20;0.13;;;11.00;99.90;;;;;;5088796;28;20290;-51
2022/09/27 12:19:21;;;;;;;0.20;0.10;;;10.90;99.90;;;;;;5085397;28;20266;-49
2022/09/27 12:21:48;;;;;;;1.33;0.30;;;10.90;99.90;;;;;;5080744;28;20267;-49
2022/09/27 12:24:21;;;;;;;0.40;0.37;;;10.90;99.90;;;;;;5083198;28;20206;-50
2022/09/27 12:26:52;;;;;;;1.73;1.60;;;10.90;99.90;;;;;;5090724;28;20230;-50
2022/09/27 12:29:25;;;;;;;0.90;0.40;;;10.90;99.90;;;;;;5071411;28;20289;-48
2022/09/27 12:32:01;;;;;;;0.97;0.20;;;11.00;99.90;;;;;;5084880;28;20201;-50
2022/09/27 12:34:37;;;;;;;0.37;0.27;;;10.90;99.90;;;;;;5091081;28;20664;-50
2022/09/27 12:37:11;;;;;;;3.27;1.27;;;11.00;99.90;;;;;;5091369;28;20287;-49
2022/09/27 12:39:47;;;;;;;1.33;0.50;;;11.00;99.90;;;;;;5091140;28;20274;-49
2022/09/27 12:42:20;;;;;;;1.07;0.97;;;11.10;99.90;;;;;;5090241;28;20295;-48
2022/09/27 12:44:47;;;;;;;0.70;0.70;;;11.20;99.90;;;;;;5091085;28;20192;-49
2022/09/27 12:47:30;;;;;;;1.13;0.80;;;11.30;99.90;;;;;;5091337;28;20213;-51
2022/09/27 12:50:06;;;;;;;0.37;0.20;;;11.40;99.90;;;;;;5076696;28;20300;-50
2022/09/27 12:52:39;;;;;;;0.70;0.30;;;11.60;99.90;;;;;;5087239;28;20696;-50
2022/09/27 12:55:26;;;;;;;0.43;0.30;;;12.00;99.90;;;;;;5071048;28;20208;-50
2022/09/27 12:58:22;;;;;;;0.20;0.20;;;12.40;99.90;;;;;;5070958;28;20199;-49
2022/09/27 13:00:57;;;;;;;0.83;0.17;;;12.70;99.90;;;;;;5077275;28;20296;-49
2022/09/27 13:03:42;;;;;;;2.37;0.50;;;12.90;99.90;;;;;;5084367;28;20220;-50
2022/09/27 13:06:32;;;;;;;0.30;0.30;;;13.10;99.90;;;;;;5076929;28;20205;-49
2022/09/27 13:09:21;;;;;;;0.10;0.10;;;13.20;99.90;;;;;;5071098;28;20224;-49
2022/09/27 13:11:55;;;;;;;0.37;0.20;;;13.20;99.90;;;;;;5083076;28;20252;-49
2022/09/27 13:14:26;;;;;;;0.40;0.40;;;13.10;99.90;;;;;;5094507;28;20193;-49
2022/09/27 13:16:53;;;;;;;0.47;0.47;;;13.20;99.90;;;;;;5094570;28;20203;-50